Time;durP1;ratioP1;P1;durP2;ratioP2;P2;SDS_P1;SDS_P2;PMS_P1;PMS_P2;Temp;Humidity;BMP_temperature;BMP_pressure;BME280_temperature;BME280_humidity;BME280_pressure;Samples;Min_cycle;Max_cycle;Signal;HPM_P1;HPM_P2
2022/06/13 00:02:00;;;;;;;4.13;2.83;;;;;;;;;;4905982;29;20197;-87
2022/06/13 00:04:28;;;;;;;1.17;1.17;;;;;;;;;;4925519;29;20256;-86
2022/06/13 00:06:59;;;;;;;0.40;0.40;;;;;;;;;;4885475;29;20207;-86
2022/06/13 00:09:27;;;;;;;0.53;0.53;;;;;;;;;;4925913;29;20210;-86
2022/06/13 00:11:56;;;;;;;0.50;0.50;;;;;;;;;;4905265;29;20240;-87
2022/06/13 00:14:24;;;;;;;2.00;1.90;;;;;;;;;;4900872;29;20220;-87
2022/06/13 00:16:53;;;;;;;1.23;0.90;;;;;;;;;;4885760;29;20294;-87
2022/06/13 00:19:21;;;;;;;3.67;1.70;;;;;;;;;;4913194;29;20214;-87
2022/06/13 00:21:50;;;;;;;4.57;1.67;;;;;;;;;;4884971;29;20203;-87
2022/06/13 00:24:20;;;;;;;6.20;1.57;;;;;;;;;;4916290;29;20216;-87
2022/06/13 00:26:48;;;;;;;1.07;0.57;;;;;;;;;;4916426;29;20214;-87
2022/06/13 00:29:16;;;;;;;0.77;0.77;;;;;;;;;;4901558;29;20229;-87
2022/06/13 00:31:45;;;;;;;2.37;1.70;;;;;;;;;;4916164;29;20220;-87
2022/06/13 00:34:13;;;;;;;3.03;1.53;;;;;;;;;;4901710;29;20219;-87
2022/06/13 00:36:42;;;;;;;1.80;1.33;;;;;;;;;;4884955;29;20199;-87
2022/06/13 00:39:10;;;;;;;5.00;2.23;;;;;;;;;;4897873;29;20204;-87
2022/06/13 00:41:41;;;;;;;3.53;2.30;;;;;;;;;;4892723;29;20222;-87
2022/06/13 00:44:18;;;;;;;3.57;2.90;;;;;;;;;;4921669;29;20227;-86
2022/06/13 00:46:46;;;;;;;10.40;1.87;;;;;;;;;;4914132;29;20207;-85
2022/06/13 00:49:17;;;;;;;1.13;1.07;;;;;;;;;;4920054;29;20213;-86
2022/06/13 00:51:47;;;;;;;1.97;1.00;;;;;;;;;;4884086;29;20212;-86
2022/06/13 00:54:17;;;;;;;7.47;4.17;;;;;;;;;;4899912;29;20224;-86
2022/06/13 00:56:48;;;;;;;5.47;3.33;;;;;;;;;;4915499;29;20207;-86
2022/06/13 00:59:19;;;;;;;9.63;2.40;;;;;;;;;;4884319;29;20215;-86
2022/06/13 01:01:48;;;;;;;0.73;0.70;;;;;;;;;;4883415;29;20208;-86
2022/06/13 01:04:16;;;;;;;2.10;1.93;;;;;;;;;;4899877;29;20283;-85
2022/06/13 01:06:46;;;;;;;7.67;2.63;;;;;;;;;;4900480;29;20212;-86
2022/06/13 01:09:16;;;;;;;0.87;0.87;;;;;;;;;;4902169;29;20279;-86
2022/06/13 01:11:46;;;;;;;6.30;3.17;;;;;;;;;;4883903;29;20208;-86
2022/06/13 01:14:22;;;;;;;14.67;4.10;;;;;;;;;;4883716;29;20242;-86
2022/06/13 01:16:57;;;;;;;3.17;1.50;;;;;;;;;;4915109;29;20216;-86
2022/06/13 01:19:44;;;;;;;0.70;0.70;;;;;;;;;;4899261;29;20227;-86
2022/06/13 01:22:21;;;;;;;5.87;2.40;;;;;;;;;;4881487;29;20209;-85
2022/06/13 01:25:03;;;;;;;3.03;2.40;;;;;;;;;;4896203;29;20207;-86
2022/06/13 01:27:46;;;;;;;3.00;1.87;;;;;;;;;;4902920;29;20207;-86
2022/06/13 01:30:41;;;;;;;4.77;2.10;;;;;;;;;;4880816;29;20212;-86
2022/06/13 01:33:16;;;;;;;0.80;0.73;;;;;;;;;;4900142;29;20211;-85
2022/06/13 01:35:48;;;;;;;1.20;0.90;;;;;;;;;;4880715;29;20216;-85
2022/06/13 01:38:25;;;;;;;0.60;0.60;;;;;;;;;;4876739;29;20211;-85
2022/06/13 01:40:59;;;;;;;4.60;2.80;;;;;;;;;;4904971;29;20210;-85
2022/06/13 01:43:35;;;;;;;1.10;1.03;;;;;;;;;;4898733;29;20237;-86
2022/06/13 01:46:06;;;;;;;1.37;1.30;;;;;;;;;;4912022;29;20214;-86
2022/06/13 01:48:39;;;;;;;2.13;1.60;;;;;;;;;;4900017;29;20263;-86
2022/06/13 01:51:11;;;;;;;5.10;3.17;;;;;;;;;;4896917;29;20212;-85
2022/06/13 01:53:44;;;;;;;1.13;1.13;;;;;;;;;;4883341;29;20701;-86
2022/06/13 01:56:13;;;;;;;4.03;2.60;;;;;;;;;;4911995;29;20207;-86
2022/06/13 01:58:44;;;;;;;5.27;1.07;;;;;;;;;;4897897;29;20208;-85
2022/06/13 02:01:16;;;;;;;4.27;1.63;;;;;;;;;;4898445;29;20268;-85
2022/06/13 02:03:49;;;;;;;0.73;0.73;;;;;;;;;;4888197;29;20206;-86
2022/06/13 02:06:19;;;;;;;5.73;1.83;;;;;;;;;;4917051;29;20215;-86
2022/06/13 02:08:50;;;;;;;3.57;1.40;;;;;;;;;;4928876;29;20208;-86
2022/06/13 02:11:21;;;;;;;0.83;0.83;;;;;;;;;;4899442;29;20227;-86
2022/06/13 02:13:52;;;;;;;2.13;1.53;;;;;;;;;;4882063;29;20226;-86
2022/06/13 02:16:23;;;;;;;4.33;1.00;;;;;;;;;;4924438;29;20238;-86
2022/06/13 02:18:58;;;;;;;4.53;1.70;;;;;;;;;;4900666;29;20200;-86
2022/06/13 02:21:29;;;;;;;2.00;1.80;;;;;;;;;;4898401;29;20302;-86
2022/06/13 02:24:05;;;;;;;1.70;1.60;;;;;;;;;;4879358;29;20203;-85
2022/06/13 02:26:36;;;;;;;1.73;0.80;;;;;;;;;;4874154;29;20212;-86
2022/06/13 02:29:07;;;;;;;0.60;0.60;;;;;;;;;;4896215;29;20218;-86
2022/06/13 02:31:37;;;;;;;1.07;1.07;;;;;;;;;;4898196;29;20273;-86
2022/06/13 02:34:10;;;;;;;2.70;1.47;;;;;;;;;;4898911;29;20223;-86
2022/06/13 02:36:42;;;;;;;4.03;1.60;;;;;;;;;;4882850;29;20246;-85
2022/06/13 02:39:13;;;;;;;5.40;1.40;;;;;;;;;;4882626;29;20206;-86
2022/06/13 02:41:44;;;;;;;0.70;0.70;;;;;;;;;;4879747;29;20215;-85
2022/06/13 02:44:18;;;;;;;4.73;1.13;;;;;;;;;;4912644;29;20282;-85
2022/06/13 02:46:49;;;;;;;0.50;0.50;;;;;;;;;;4908298;29;20210;-87
2022/06/13 02:49:21;;;;;;;1.30;1.07;;;;;;;;;;4899999;29;20242;-87
2022/06/13 02:51:54;;;;;;;0.80;0.80;;;;;;;;;;4908547;29;20211;-86
2022/06/13 02:54:25;;;;;;;2.30;2.20;;;;;;;;;;4897386;29;20219;-87
2022/06/13 02:59:48;;;;;;;2.30;1.00;;;;;;;;;;4913794;29;20216;-86
2022/06/13 03:02:21;;;;;;;2.73;0.90;;;;;;;;;;4898033;29;20207;-87
2022/06/13 03:04:57;;;;;;;0.67;0.67;;;;;;;;;;4898079;29;20199;-86
2022/06/13 03:07:28;;;;;;;0.63;0.63;;;;;;;;;;4904813;29;20229;-86
2022/06/13 03:10:00;;;;;;;2.87;1.73;;;;;;;;;;4903265;29;20215;-87
2022/06/13 03:12:30;;;;;;;0.50;0.50;;;;;;;;;;4882120;29;20207;-87
2022/06/13 03:15:02;;;;;;;1.30;0.47;;;;;;;;;;4882339;29;20329;-87
2022/06/13 03:17:36;;;;;;;10.40;0.93;;;;;;;;;;4892220;29;20199;-87
2022/06/13 03:20:09;;;;;;;0.93;0.93;;;;;;;;;;4919295;29;20208;-87
2022/06/13 03:22:42;;;;;;;0.60;0.60;;;;;;;;;;4900760;29;20204;-87
2022/06/13 03:25:13;;;;;;;2.00;1.87;;;;;;;;;;4899522;29;20211;-87
2022/06/13 03:27:45;;;;;;;0.97;0.97;;;;;;;;;;4904166;29;20207;-86
2022/06/13 03:30:15;;;;;;;2.20;1.30;;;;;;;;;;4901542;29;20263;-86
2022/06/13 03:33:40;;;;;;;0.70;0.70;;;;;;;;;;4904219;29;20239;-86
2022/06/13 03:35:37;;;;;;;1.20;0.90;;;;;;;;;;4903342;29;20223;-87
2022/06/13 03:38:08;;;;;;;1.00;1.00;;;;;;;;;;4902310;29;20207;-87
2022/06/13 03:40:38;;;;;;;2.10;1.27;;;;;;;;;;4885697;29;20213;-87
2022/06/13 03:43:09;;;;;;;4.63;1.70;;;;;;;;;;4885649;29;20292;-86
2022/06/13 03:45:41;;;;;;;1.70;1.13;;;;;;;;;;4882872;29;20228;-86
2022/06/13 03:48:12;;;;;;;0.50;0.50;;;;;;;;;;4907705;29;20213;-87
2022/06/13 03:50:46;;;;;;;2.00;1.30;;;;;;;;;;4923196;29;20212;-86
2022/06/13 03:53:17;;;;;;;0.87;0.80;;;;;;;;;;4917481;29;20231;-87
2022/06/13 03:55:49;;;;;;;0.77;0.77;;;;;;;;;;4929422;29;20215;-87
2022/06/13 03:58:19;;;;;;;0.50;0.50;;;;;;;;;;4915356;29;20263;-87
2022/06/13 04:00:50;;;;;;;9.87;1.40;;;;;;;;;;4936120;29;20202;-86
2022/06/13 04:03:19;;;;;;;1.80;1.70;;;;;;;;;;4889606;29;20220;-86
2022/06/13 04:05:57;;;;;;;2.50;1.60;;;;;;;;;;4928134;29;20206;-86
2022/06/13 04:08:26;;;;;;;2.73;1.40;;;;;;;;;;4901082;29;20327;-87
2022/06/13 04:11:09;;;;;;;0.80;0.80;;;;;;;;;;4900854;29;20215;-86
2022/06/13 04:13:42;;;;;;;4.03;0.70;;;;;;;;;;4898414;29;20302;-86
2022/06/13 04:16:15;;;;;;;0.87;0.87;;;;;;;;;;4900850;29;20232;-87
2022/06/13 04:19:05;;;;;;;1.50;1.33;;;;;;;;;;4887560;29;20294;-87
2022/06/13 04:21:40;;;;;;;0.93;0.93;;;;;;;;;;4888702;29;20235;-86
2022/06/13 04:24:18;;;;;;;2.70;1.70;;;;;;;;;;4906109;29;20290;-86
2022/06/13 04:26:50;;;;;;;5.37;1.43;;;;;;;;;;4908450;29;20214;-87
2022/06/13 04:29:23;;;;;;;3.33;1.30;;;;;;;;;;4884446;29;20203;-87
2022/06/13 04:31:54;;;;;;;2.50;1.10;;;;;;;;;;4902013;29;20230;-87
2022/06/13 04:34:25;;;;;;;1.70;1.53;;;;;;;;;;4914550;29;20266;-86
2022/06/13 04:36:55;;;;;;;4.30;1.13;;;;;;;;;;4883904;29;20215;-86
2022/06/13 04:39:26;;;;;;;1.40;0.80;;;;;;;;;;4900443;29;20208;-86
2022/06/13 04:41:55;;;;;;;3.50;0.83;;;;;;;;;;4895562;29;20211;-86
2022/06/13 04:44:25;;;;;;;0.53;0.53;;;;;;;;;;4915742;29;20224;-85
2022/06/13 04:46:54;;;;;;;2.30;1.67;;;;;;;;;;4900151;29;20234;-86
2022/06/13 04:49:25;;;;;;;6.03;1.33;;;;;;;;;;4901202;29;20204;-86
2022/06/13 04:51:56;;;;;;;7.40;1.63;;;;;;;;;;4884226;29;20263;-85
2022/06/13 04:54:29;;;;;;;2.03;0.63;;;;;;;;;;4914012;29;20302;-86
2022/06/13 04:56:58;;;;;;;1.70;0.90;;;;;;;;;;4900353;29;20219;-86
2022/06/13 04:59:27;;;;;;;1.60;1.50;;;;;;;;;;4926804;29;20230;-86
2022/06/13 05:01:56;;;;;;;1.33;1.23;;;;;;;;;;4930523;29;20222;-86
2022/06/13 05:04:26;;;;;;;0.97;0.97;;;;;;;;;;4900136;29;20214;-86
2022/06/13 05:06:57;;;;;;;2.87;1.63;;;;;;;;;;4884874;29;20203;-86
2022/06/13 05:09:28;;;;;;;2.00;1.37;;;;;;;;;;4899578;29;20297;-86
2022/06/13 05:12:04;;;;;;;7.53;2.20;;;;;;;;;;4913935;29;20289;-86
2022/06/13 05:14:35;;;;;;;4.07;1.43;;;;;;;;;;4900926;29;20206;-83
2022/06/13 05:17:13;;;;;;;3.80;2.27;;;;;;;;;;4884162;29;20234;-86
2022/06/13 05:19:47;;;;;;;3.23;1.80;;;;;;;;;;4925097;29;20209;-85
2022/06/13 05:22:22;;;;;;;3.20;0.80;;;;;;;;;;4919416;29;20195;-86
2022/06/13 05:25:01;;;;;;;0.63;0.63;;;;;;;;;;4902632;29;20243;-85
2022/06/13 05:27:29;;;;;;;3.60;1.90;;;;;;;;;;4917082;29;20229;-85
2022/06/13 05:29:58;;;;;;;2.20;1.10;;;;;;;;;;4915102;29;20214;-85
2022/06/13 05:32:26;;;;;;;5.90;1.57;;;;;;;;;;4896667;29;20211;-86
2022/06/13 05:34:55;;;;;;;1.83;1.17;;;;;;;;;;4892983;29;20290;-85
2022/06/13 05:37:25;;;;;;;1.67;1.27;;;;;;;;;;4915949;29;20246;-85
2022/06/13 05:39:54;;;;;;;2.63;1.63;;;;;;;;;;4899272;29;20297;-84
2022/06/13 05:42:28;;;;;;;10.13;2.07;;;;;;;;;;4900409;29;20214;-85
2022/06/13 05:44:56;;;;;;;0.80;0.80;;;;;;;;;;4900367;29;20243;-84
2022/06/13 05:47:28;;;;;;;6.03;1.50;;;;;;;;;;4897240;29;20207;-84
2022/06/13 05:49:57;;;;;;;3.70;1.70;;;;;;;;;;4884086;29;20203;-84
2022/06/13 05:52:27;;;;;;;4.67;2.03;;;;;;;;;;4928002;29;20207;-85
2022/06/13 05:54:55;;;;;;;1.37;0.90;;;;;;;;;;4902664;29;20209;-84
2022/06/13 05:57:25;;;;;;;2.00;1.53;;;;;;;;;;4900234;29;20222;-85
2022/06/13 05:59:53;;;;;;;5.67;1.67;;;;;;;;;;4900621;29;20215;-85
2022/06/13 06:02:21;;;;;;;5.53;2.93;;;;;;;;;;4910322;29;20215;-85
2022/06/13 06:04:50;;;;;;;4.23;1.27;;;;;;;;;;4914507;29;20228;-85
2022/06/13 06:07:25;;;;;;;1.50;1.00;;;;;;;;;;4914824;29;20207;-85
2022/06/13 06:09:55;;;;;;;6.07;1.60;;;;;;;;;;4913042;29;20290;-84
2022/06/13 06:12:23;;;;;;;5.63;1.17;;;;;;;;;;4899624;29;20208;-84
2022/06/13 06:14:52;;;;;;;1.87;1.33;;;;;;;;;;4883629;29;20330;-88
2022/06/13 06:17:20;;;;;;;0.80;0.80;;;;;;;;;;4914129;29;20246;-88
2022/06/13 06:19:50;;;;;;;1.33;1.23;;;;;;;;;;4883319;29;20211;-87
2022/06/13 06:22:18;;;;;;;0.63;0.63;;;;;;;;;;4912977;29;20280;-86
2022/06/13 06:24:47;;;;;;;1.67;0.90;;;;;;;;;;4883006;29;20267;-86
2022/06/13 06:27:17;;;;;;;6.87;2.37;;;;;;;;;;4899561;29;20221;-86
2022/06/13 06:29:45;;;;;;;1.27;1.00;;;;;;;;;;4899836;29;20207;-86
2022/06/13 06:32:18;;;;;;;0.87;0.87;;;;;;;;;;4884946;29;20210;-86
2022/06/13 06:34:49;;;;;;;4.33;1.60;;;;;;;;;;4901871;29;20203;-86
2022/06/13 06:37:20;;;;;;;4.03;1.83;;;;;;;;;;4887151;29;20223;-86
2022/06/13 06:39:50;;;;;;;1.23;1.00;;;;;;;;;;4882899;29;20212;-86
2022/06/13 06:42:21;;;;;;;5.53;1.17;;;;;;;;;;4884141;29;20203;-86
2022/06/13 06:45:22;;;;;;;5.57;1.07;;;;;;;;;;4907605;29;20228;-86
2022/06/13 06:47:53;;;;;;;7.47;1.50;;;;;;;;;;4886736;29;20219;-86
2022/06/13 06:50:31;;;;;;;1.07;0.80;;;;;;;;;;4933481;29;20243;-86
2022/06/13 06:53:02;;;;;;;5.77;1.50;;;;;;;;;;4894953;29;20229;-83
2022/06/13 07:01:21;;;;;;;2.53;0.90;;;;;;;;;;4907998;29;20226;-85
2022/06/13 07:04:12;;;;;;;;;;;;;;;;;;;;;
2022/06/13 07:07:32;;;;;;;4.37;1.77;;;;;;;;;;4913298;29;20205;-85
2022/06/13 07:10:12;;;;;;;0.60;0.60;;;;;;;;;;4880407;29;20278;-85
2022/06/13 07:13:01;;;;;;;8.27;1.47;;;;;;;;;;4882508;29;20210;-85
2022/06/13 07:15:48;;;;;;;0.67;0.53;;;;;;;;;;4880902;29;20245;-85
2022/06/13 07:18:40;;;;;;;6.17;1.80;;;;;;;;;;4881898;29;20302;-85
2022/06/13 07:21:29;;;;;;;3.50;1.53;;;;;;;;;;4897992;29;20215;-83
2022/06/13 07:24:19;;;;;;;2.10;1.30;;;;;;;;;;4888106;29;20214;-85
2022/06/13 07:27:32;;;;;;;4.13;1.97;;;;;;;;;;4900706;29;20207;-85
2022/06/13 07:30:37;;;;;;;;;;;;;;;;;;;;;
2022/06/13 07:33:29;;;;;;;3.20;1.57;;;;;;;;;;4880227;29;20210;-85
2022/06/13 07:36:06;;;;;;;3.73;1.73;;;;;;;;;;4881913;29;20211;-86
2022/06/13 07:38:38;;;;;;;1.20;1.10;;;;;;;;;;4882123;29;20291;-86
2022/06/13 07:41:15;;;;;;;1.17;1.07;;;;;;;;;;4912858;29;20212;-86
2022/06/13 07:43:46;;;;;;;1.63;1.20;;;;;;;;;;4881696;29;20258;-87
2022/06/13 07:46:26;;;;;;;0.90;0.90;;;;;;;;;;4881669;29;20211;-87
2022/06/13 07:48:57;;;;;;;3.90;1.30;;;;;;;;;;4882075;29;20210;-86
2022/06/13 07:51:31;;;;;;;1.70;1.57;;;;;;;;;;4887433;29;20203;-87
2022/06/13 07:54:23;;;;;;;1.90;1.27;;;;;;;;;;4893802;29;20207;-86
2022/06/13 08:09:25;;;;;;;3.53;2.03;;;;;;;;;;4739424;30;20222;-91
2022/06/13 08:24:25;;;;;;;2.00;1.13;;;;;;;;;;4686085;30;20530;-84
2022/06/13 08:27:09;;;;;;;5.67;1.17;;;;;;;;;;4720034;29;20258;-89
2022/06/13 08:34:04;;;;;;;1.47;0.90;;;;;;;;;;4746897;30;20268;-85
2022/06/13 11:55:12;;;;;;;2.87;1.37;;;;;;;;;;4932583;29;20237;-88
2022/06/13 11:57:56;;;;;;;2.33;0.87;;;;;;;;;;4919943;29;20301;-86
2022/06/13 12:00:33;;;;;;;2.37;1.47;;;;;;;;;;4950197;28;20269;-86
2022/06/13 12:03:15;;;;;;;7.70;1.37;;;;;;;;;;4930589;29;20311;-86
2022/06/13 12:05:47;;;;;;;5.77;1.00;;;;;;;;;;4949289;28;20235;-88
2022/06/13 12:08:20;;;;;;;4.33;1.80;;;;;;;;;;4947462;28;20207;-87
2022/06/13 12:11:01;;;;;;;1.07;0.80;;;;;;;;;;4919678;29;20224;-86
2022/06/13 12:13:31;;;;;;;1.00;0.90;;;;;;;;;;4947538;28;20221;-85
2022/06/13 12:16:07;;;;;;;5.50;1.93;;;;;;;;;;4917884;29;20213;-86
2022/06/13 12:18:41;;;;;;;5.83;2.27;;;;;;;;;;4950246;28;20225;-89
2022/06/13 12:21:38;;;;;;;7.90;1.10;;;;;;;;;;4932510;29;20194;-83
2022/06/13 12:24:14;;;;;;;2.90;1.90;;;;;;;;;;4947893;28;20305;-84
2022/06/13 12:26:47;;;;;;;1.40;1.07;;;;;;;;;;4913172;29;20304;-85
2022/06/13 12:29:32;;;;;;;1.43;1.30;;;;;;;;;;4932066;29;20209;-87
2022/06/13 12:32:11;;;;;;;4.80;1.23;;;;;;;;;;4920421;29;20206;-89
2022/06/13 12:34:46;;;;;;;3.43;1.57;;;;;;;;;;4948764;28;20215;-86
2022/06/13 12:37:23;;;;;;;3.23;1.53;;;;;;;;;;4950557;28;20208;-87
2022/06/13 12:39:59;;;;;;;2.90;1.27;;;;;;;;;;4917751;29;20304;-85
2022/06/13 12:42:39;;;;;;;1.37;1.27;;;;;;;;;;4921313;29;20219;-88
2022/06/13 12:45:24;;;;;;;1.97;1.63;;;;;;;;;;4918621;29;20276;-86
2022/06/13 12:48:01;;;;;;;4.63;1.47;;;;;;;;;;4919987;29;20675;-88
2022/06/13 12:50:57;;;;;;;0.93;0.93;;;;;;;;;;4936418;29;20230;-89
2022/06/13 12:53:39;;;;;;;4.53;2.77;;;;;;;;;;4910577;28;20243;-89
2022/06/13 12:56:11;;;;;;;6.33;1.33;;;;;;;;;;4947029;28;20223;-87
2022/06/13 12:59:01;;;;;;;0.90;0.90;;;;;;;;;;4917596;29;20311;-88
2022/06/13 13:01:37;;;;;;;4.80;1.70;;;;;;;;;;4944567;28;20212;-87
2022/06/13 13:04:24;;;;;;;5.33;1.67;;;;;;;;;;4948722;28;20212;-83
2022/06/13 13:06:58;;;;;;;5.73;2.07;;;;;;;;;;4929863;29;20205;-85
2022/06/13 13:12:58;;;;;;;1.70;1.50;;;;;;;;;;4916681;29;20287;-87
2022/06/13 13:15:42;;;;;;;4.77;1.47;;;;;;;;;;4896158;29;20307;-88
2022/06/13 13:18:27;;;;;;;5.17;2.03;;;;;;;;;;4917546;29;20244;-88
2022/06/13 13:20:59;;;;;;;3.33;1.30;;;;;;;;;;4931595;29;20210;-89
2022/06/13 13:23:33;;;;;;;2.10;1.17;;;;;;;;;;4917792;29;20209;-86
2022/06/13 13:26:25;;;;;;;0.90;0.90;;;;;;;;;;4913384;29;20218;-87
2022/06/13 13:29:05;;;;;;;2.73;1.27;;;;;;;;;;4914711;29;20289;-84
2022/06/13 13:32:09;;;;;;;1.87;1.33;;;;;;;;;;4911509;29;20202;-88
2022/06/13 13:34:54;;;;;;;2.53;1.17;;;;;;;;;;4914793;29;20229;-88
2022/06/13 13:37:34;;;;;;;0.97;0.63;;;;;;;;;;4928597;29;20277;-89
2022/06/13 13:40:16;;;;;;;2.40;1.10;;;;;;;;;;4946024;28;20252;-89
2022/06/13 13:42:52;;;;;;;5.10;1.93;;;;;;;;;;4945896;28;20212;-89
2022/06/13 13:45:27;;;;;;;1.17;0.77;;;;;;;;;;4929777;29;20207;-86
2022/06/13 13:48:16;;;;;;;1.97;1.33;;;;;;;;;;4929943;29;20205;-90
2022/06/13 13:54:21;;;;;;;2.17;1.47;;;;;;;;;;4934455;29;20238;-91
2022/06/13 13:56:52;;;;;;;1.20;1.10;;;;;;;;;;4947771;28;20205;-89
2022/06/13 13:59:25;;;;;;;4.53;2.17;;;;;;;;;;4941361;28;20229;-84
2022/06/13 14:01:57;;;;;;;2.23;1.27;;;;;;;;;;4944821;28;20210;-88
2022/06/13 14:04:35;;;;;;;3.23;1.90;;;;;;;;;;4945870;28;20206;-88
2022/06/13 14:07:11;;;;;;;0.80;0.80;;;;;;;;;;4919513;29;20222;-89
2022/06/13 14:09:40;;;;;;;4.93;2.10;;;;;;;;;;4946059;28;20193;-90
2022/06/13 14:12:13;;;;;;;2.03;1.67;;;;;;;;;;4942229;29;20232;-88
2022/06/13 14:15:02;;;;;;;4.50;1.63;;;;;;;;;;4908765;29;20211;-85
2022/06/13 14:17:38;;;;;;;3.87;3.47;;;;;;;;;;4937032;28;20209;-89
2022/06/13 14:20:23;;;;;;;5.90;1.87;;;;;;;;;;4939543;28;20229;-85
2022/06/13 14:23:04;;;;;;;5.13;1.77;;;;;;;;;;4946468;28;20289;-88
2022/06/13 14:25:42;;;;;;;2.93;1.50;;;;;;;;;;4914844;29;20238;-91
2022/06/13 14:28:16;;;;;;;9.87;1.47;;;;;;;;;;4921875;29;20236;-91
2022/06/13 14:31:08;;;;;;;1.67;1.40;;;;;;;;;;4906176;29;20228;-89
2022/06/13 14:37:08;;;;;;;3.20;1.27;;;;;;;;;;4938256;28;20219;-90
2022/06/13 14:39:45;;;;;;;6.53;1.53;;;;;;;;;;4926524;29;20246;-90
2022/06/13 14:45:25;;;;;;;2.23;0.97;;;;;;;;;;4947965;28;20216;-89
2022/06/13 14:48:12;;;;;;;5.43;1.30;;;;;;;;;;4932864;29;20225;-88
2022/06/13 14:50:50;;;;;;;3.67;2.03;;;;;;;;;;4905551;29;20295;-88
2022/06/13 14:53:45;;;;;;;2.03;1.30;;;;;;;;;;4911479;28;20252;-90
2022/06/13 14:59:55;;;;;;;2.77;0.73;;;;;;;;;;4954285;28;20263;-89
2022/06/13 15:02:26;;;;;;;3.00;1.53;;;;;;;;;;4957040;28;20213;-85
2022/06/13 15:05:02;;;;;;;2.70;1.87;;;;;;;;;;4930565;28;20325;-89
2022/06/13 15:13:40;;;;;;;8.93;1.63;;;;;;;;;;4924664;28;20216;-89
2022/06/13 15:16:12;;;;;;;5.37;1.60;;;;;;;;;;4957795;28;20216;-88
2022/06/13 15:18:44;;;;;;;2.90;1.27;;;;;;;;;;4960713;28;20299;-87
2022/06/13 15:21:15;;;;;;;1.07;0.97;;;;;;;;;;4958968;28;20218;-88
2022/06/13 15:24:08;;;;;;;2.43;1.93;;;;;;;;;;4958760;28;20210;-87
2022/06/13 15:26:37;;;;;;;4.23;1.93;;;;;;;;;;4933144;28;20202;-89
2022/06/13 15:29:18;;;;;;;1.63;0.73;;;;;;;;;;4948779;28;20202;-89
2022/06/13 15:31:52;;;;;;;1.70;1.57;;;;;;;;;;4948282;28;20282;-90
2022/06/13 15:34:23;;;;;;;2.00;0.90;;;;;;;;;;4969379;28;20212;-88
2022/06/13 15:36:54;;;;;;;3.87;1.50;;;;;;;;;;4932674;28;20243;-87
2022/06/13 15:39:23;;;;;;;1.87;0.93;;;;;;;;;;4938300;28;20226;-87
2022/06/13 15:41:54;;;;;;;5.57;1.40;;;;;;;;;;4939142;29;20284;-87
2022/06/13 15:44:54;;;;;;;2.73;1.10;;;;;;;;;;4951114;29;20286;-87
2022/06/13 15:47:24;;;;;;;7.33;1.87;;;;;;;;;;4953791;28;20218;-87
2022/06/13 15:49:54;;;;;;;1.87;1.13;;;;;;;;;;4932389;28;20199;-87
2022/06/13 15:52:27;;;;;;;0.70;0.70;;;;;;;;;;4954521;28;20263;-86
2022/06/13 15:54:59;;;;;;;2.90;1.57;;;;;;;;;;4932932;28;20312;-89
2022/06/13 15:57:28;;;;;;;4.73;1.27;;;;;;;;;;4933753;28;20208;-89
2022/06/13 15:59:58;;;;;;;4.13;1.17;;;;;;;;;;4935016;28;20226;-89
2022/06/13 16:02:33;;;;;;;1.20;1.10;;;;;;;;;;4963337;28;20204;-88
2022/06/13 16:05:04;;;;;;;1.00;0.50;;;;;;;;;;4946976;28;20216;-88
2022/06/13 16:07:34;;;;;;;1.63;1.40;;;;;;;;;;4937040;28;20243;-86
2022/06/13 16:10:02;;;;;;;0.50;0.50;;;;;;;;;;4964360;28;20269;-87
2022/06/13 16:12:33;;;;;;;3.13;1.63;;;;;;;;;;4968245;28;20210;-87
2022/06/13 16:15:02;;;;;;;2.63;0.97;;;;;;;;;;4962962;28;20647;-87
2022/06/13 16:17:37;;;;;;;3.80;1.43;;;;;;;;;;4963729;28;20202;-89
2022/06/13 16:20:24;;;;;;;0.40;0.40;;;;;;;;;;4974439;28;20278;-89
2022/06/13 16:22:54;;;;;;;0.80;0.80;;;;;;;;;;4945912;28;20205;-91
2022/06/13 16:25:26;;;;;;;0.70;0.70;;;;;;;;;;4953212;28;20211;-89
2022/06/13 16:27:58;;;;;;;0.30;0.30;;;;;;;;;;4971764;28;20243;-87
2022/06/13 16:30:33;;;;;;;5.60;1.77;;;;;;;;;;4960244;28;20215;-91
2022/06/13 16:33:03;;;;;;;3.30;1.33;;;;;;;;;;4931056;29;20214;-89
2022/06/13 16:35:51;;;;;;;5.80;1.47;;;;;;;;;;4944558;28;20211;-89
2022/06/13 16:38:34;;;;;;;2.00;0.83;;;;;;;;;;4938337;29;20229;-89
2022/06/13 16:41:27;;;;;;;2.47;1.37;;;;;;;;;;4950925;28;20235;-89
2022/06/13 16:43:59;;;;;;;1.37;1.27;;;;;;;;;;4964814;28;20233;-90
2022/06/13 16:46:29;;;;;;;2.70;1.20;;;;;;;;;;4968926;28;20236;-89
2022/06/13 16:49:01;;;;;;;3.10;1.30;;;;;;;;;;4965497;28;20215;-87
2022/06/13 16:51:37;;;;;;;2.67;1.20;;;;;;;;;;4963902;28;20205;-88
2022/06/13 16:54:13;;;;;;;0.60;0.60;;;;;;;;;;4943943;28;20289;-89
2022/06/13 16:56:49;;;;;;;0.87;0.87;;;;;;;;;;4932171;29;20258;-87
2022/06/13 16:59:24;;;;;;;1.30;0.80;;;;;;;;;;4934495;29;20211;-86
2022/06/13 17:02:04;;;;;;;0.90;0.57;;;;;;;;;;4914519;29;20315;-87
2022/06/13 17:04:56;;;;;;;0.50;0.50;;;;;;;;;;4929006;29;20232;-90
2022/06/13 17:07:31;;;;;;;0.83;0.60;;;;;;;;;;4915356;29;20206;-87
2022/06/13 17:10:08;;;;;;;2.57;1.30;;;;;;;;;;4942677;28;20231;-87
2022/06/13 17:13:03;;;;;;;5.83;2.67;;;;;;;;;;4919078;29;20267;-85
2022/06/13 17:15:52;;;;;;;0.20;0.20;;;;;;;;;;4927590;29;20211;-84
2022/06/13 17:18:45;;;;;;;1.73;1.10;;;;;;;;;;4902563;29;20212;-85
2022/06/13 17:21:18;;;;;;;5.13;0.80;;;;;;;;;;4932609;29;20224;-88
2022/06/13 17:23:48;;;;;;;1.03;0.70;;;;;;;;;;4934708;29;20212;-87
2022/06/13 17:32:17;;;;;;;2.00;1.40;;;;;;;;;;4913565;29;20211;-90
2022/06/13 17:34:53;;;;;;;0.40;0.40;;;;;;;;;;4947400;28;20224;-86
2022/06/13 17:37:22;;;;;;;0.90;0.90;;;;;;;;;;4935978;29;20283;-87
2022/06/13 17:39:51;;;;;;;0.20;0.20;;;;;;;;;;4926032;29;20211;-85
2022/06/13 17:42:21;;;;;;;0.50;0.50;;;;;;;;;;4923258;29;20293;-88
2022/06/13 17:45:00;;;;;;;0.40;0.40;;;;;;;;;;4914238;29;20236;-86
2022/06/13 17:47:32;;;;;;;2.37;1.43;;;;;;;;;;4939345;28;20203;-86
2022/06/13 17:50:02;;;;;;;1.63;1.10;;;;;;;;;;4943836;28;20226;-86
2022/06/13 17:52:31;;;;;;;0.30;0.30;;;;;;;;;;4911987;29;20261;-86
2022/06/13 17:55:00;;;;;;;1.50;0.70;;;;;;;;;;4937205;28;20238;-87
2022/06/13 17:57:29;;;;;;;1.23;0.53;;;;;;;;;;4923960;29;20210;-90
2022/06/13 17:59:58;;;;;;;1.23;0.33;;;;;;;;;;4918198;29;20202;-86
2022/06/13 18:02:32;;;;;;;0.30;0.30;;;;;;;;;;4915299;29;20308;-86
2022/06/13 18:05:00;;;;;;;2.03;1.33;;;;;;;;;;4928256;29;20198;-87
2022/06/13 18:07:29;;;;;;;0.40;0.40;;;;;;;;;;4924162;29;20265;-86
2022/06/13 18:09:58;;;;;;;2.67;1.37;;;;;;;;;;4927723;29;20674;-86
2022/06/13 18:12:27;;;;;;;2.33;0.80;;;;;;;;;;4944958;28;20234;-88
2022/06/13 18:15:06;;;;;;;0.73;0.73;;;;;;;;;;4931085;29;20213;-89
2022/06/13 18:17:42;;;;;;;3.50;1.37;;;;;;;;;;4937255;28;20282;-89
2022/06/13 18:20:12;;;;;;;0.97;0.80;;;;;;;;;;4912201;29;20238;-89
2022/06/13 18:22:41;;;;;;;3.20;1.07;;;;;;;;;;4914467;29;20226;-87
2022/06/13 18:25:10;;;;;;;1.00;0.73;;;;;;;;;;4929438;29;20241;-89
2022/06/13 18:27:39;;;;;;;2.30;2.20;;;;;;;;;;4935538;29;20306;-88
2022/06/13 18:30:10;;;;;;;0.40;0.40;;;;;;;;;;4927845;29;20217;-88
2022/06/13 18:32:40;;;;;;;1.17;0.50;;;;;;;;;;4937322;28;20202;-86
2022/06/13 18:35:09;;;;;;;1.40;1.30;;;;;;;;;;4912405;29;20210;-86
2022/06/13 18:37:38;;;;;;;1.80;0.60;;;;;;;;;;4916558;29;20218;-87
2022/06/13 18:40:07;;;;;;;0.77;0.63;;;;;;;;;;4927618;29;20654;-87
2022/06/13 18:42:39;;;;;;;0.83;0.83;;;;;;;;;;4928816;29;20312;-87
2022/06/13 18:45:09;;;;;;;1.57;0.97;;;;;;;;;;4944987;28;20240;-86
2022/06/13 18:47:38;;;;;;;3.53;0.77;;;;;;;;;;4942353;28;20329;-87
2022/06/13 18:50:08;;;;;;;3.63;0.57;;;;;;;;;;4943603;28;20242;-87
2022/06/13 18:52:37;;;;;;;1.37;0.87;;;;;;;;;;4909023;29;20226;-86
2022/06/13 18:55:06;;;;;;;0.70;0.70;;;;;;;;;;4929857;29;20256;-87
2022/06/13 18:57:34;;;;;;;1.23;0.40;;;;;;;;;;4926989;29;20237;-87
2022/06/13 19:00:03;;;;;;;0.20;0.20;;;;;;;;;;4936754;28;20206;-86
2022/06/13 19:02:34;;;;;;;0.90;0.90;;;;;;;;;;4921417;29;20222;-86
2022/06/13 19:05:03;;;;;;;0.20;0.20;;;;;;;;;;4929559;29;20207;-87
2022/06/13 19:07:33;;;;;;;0.57;0.53;;;;;;;;;;4903221;29;20209;-88
2022/06/13 19:10:03;;;;;;;2.13;1.23;;;;;;;;;;4913720;29;20273;-86
2022/06/13 19:12:33;;;;;;;0.37;0.37;;;;;;;;;;4928807;29;20269;-86
2022/06/13 19:15:03;;;;;;;1.07;0.97;;;;;;;;;;4915615;29;20212;-86
2022/06/13 19:17:33;;;;;;;0.30;0.30;;;;;;;;;;4944280;28;20224;-89
2022/06/13 19:20:02;;;;;;;0.20;0.20;;;;;;;;;;4911835;29;20632;-88
2022/06/13 19:22:32;;;;;;;1.23;0.93;;;;;;;;;;4912330;29;20224;-87
2022/06/13 19:25:01;;;;;;;0.20;0.20;;;;;;;;;;4926920;29;20297;-90
2022/06/13 19:27:29;;;;;;;0.97;0.87;;;;;;;;;;4913363;29;20212;-87
2022/06/13 19:29:58;;;;;;;0.63;0.63;;;;;;;;;;4914899;29;20637;-86
2022/06/13 19:32:29;;;;;;;0.87;0.70;;;;;;;;;;4911256;29;20218;-88
2022/06/13 19:34:58;;;;;;;1.37;1.07;;;;;;;;;;4929223;29;20210;-87
2022/06/13 19:37:27;;;;;;;2.43;0.80;;;;;;;;;;4924611;29;20238;-89
2022/06/13 19:39:58;;;;;;;0.20;0.20;;;;;;;;;;4931435;29;20216;-88
2022/06/13 19:42:29;;;;;;;4.90;0.73;;;;;;;;;;4911232;29;20277;-87
2022/06/13 19:45:02;;;;;;;4.13;1.50;;;;;;;;;;4914899;29;20649;-90
2022/06/13 19:47:31;;;;;;;1.03;1.03;;;;;;;;;;4927742;29;20209;-87
2022/06/13 19:50:00;;;;;;;0.97;0.57;;;;;;;;;;4912743;29;20622;-86
2022/06/13 19:55:18;;;;;;;0.70;0.70;;;;;;;;;;4928240;28;20236;-86
2022/06/13 19:57:48;;;;;;;0.63;0.63;;;;;;;;;;4930434;29;20314;-87